Redfield, New York
Current Conditions -  °F | °C
As of 10:53 PM on Monday 22 Dec 2014 (Local Time) from KRME Reporting Station
Overcast Overcast  
Wind Chill: 29°   Ceiling: 2400
Heat Index: 35°   Visibility: 10mi
Dew Point: 31°   Wind: 7mph
Humidity: 85%   Direction: 130°SE
Pressure: 30.18"   Gusts: NA
Location:  43.53°N, 75.82°W
Report Text: KRME 230353Z AUTO 13006KT 10SM OVC024 02/M01 A3018 RMK AO2 SLP225 T00171006
Loading
Personal Weather Stations






























Interactive Weather Map New forecast layout! Learn more

10-Day Weather Forecast

Advertisements
Track Severe Weather on mobile